Time;durP1;ratioP1;P1;durP2;ratioP2;P2;SDS_P1;SDS_P2;PMS_P1;PMS_P2;Temp;Humidity;BMP_temperature;BMP_pressure;BME280_temperature;BME280_humidity;BME280_pressure;Samples;Min_cycle;Max_cycle;Signal;HPM_P1;HPM_P2
2021/05/05 00:00:45;;;;;;;;;;;10.10;61.80;;;;;;5069887;28;20032;-67
2021/05/05 00:03:11;;;;;;;5.20;1.40;;;10.10;62.30;;;;;;5069742;28;19961;-67
2021/05/05 00:05:38;;;;;;;;;;;10.10;61.80;;;;;;5070032;28;20062;-67
2021/05/05 00:08:03;;;;;;;3.43;2.03;;;10.00;62.10;;;;;;5069309;28;19909;-67
2021/05/05 00:10:29;;;;;;;4.25;1.77;;;10.00;62.20;;;;;;5068998;28;20036;-67
2021/05/05 00:12:55;;;;;;;;;;;10.00;62.40;;;;;;5068232;28;20033;-67
2021/05/05 00:15:22;;;;;;;3.17;1.20;;;9.90;63.70;;;;;;5069529;28;19904;-67
2021/05/05 00:17:48;;;;;;;2.75;1.25;;;9.90;63.40;;;;;;5068928;28;20068;-67
2021/05/05 00:20:15;;;;;;;7.07;1.30;;;9.80;63.70;;;;;;5069456;28;20028;-67
2021/05/05 00:22:41;;;;;;;2.47;1.20;;;9.90;63.60;;;;;;5068826;28;20040;-67
2021/05/05 00:25:07;;;;;;;;;;;9.80;64.40;;;;;;5068031;28;20370;-66
2021/05/05 00:27:33;;;;;;;5.05;1.65;;;9.70;64.60;;;;;;5069179;28;20314;-67
2021/05/05 00:29:59;;;;;;;3.22;1.60;;;9.70;64.90;;;;;;5069074;28;20016;-68
2021/05/05 00:32:25;;;;;;;5.43;1.70;;;9.60;65.50;;;;;;5069050;28;20060;-67
2021/05/05 00:34:51;;;;;;;2.53;1.48;;;9.60;66.10;;;;;;5068701;28;20044;-67
2021/05/05 00:37:17;;;;;;;;;;;9.50;65.80;;;;;;5069535;28;20044;-67
2021/05/05 00:39:42;;;;;;;8.85;2.10;;;9.50;66.30;;;;;;5068266;28;19916;-68
2021/05/05 00:42:08;;;;;;;6.05;1.73;;;9.50;65.90;;;;;;5068875;28;20047;-67
2021/05/05 00:44:33;;;;;;;;;;;9.40;65.80;;;;;;5069340;28;20231;-67
2021/05/05 00:47:00;;;;;;;5.82;2.20;;;9.40;66.90;;;;;;5068743;28;20288;-66
2021/05/05 00:49:26;;;;;;;4.75;2.03;;;9.40;67.00;;;;;;5068787;28;20048;-68
2021/05/05 00:51:51;;;;;;;;;;;9.30;67.40;;;;;;5068686;28;20550;-67
2021/05/05 00:54:17;;;;;;;6.35;1.40;;;9.30;67.00;;;;;;5068746;28;19915;-70
2021/05/05 00:56:44;;;;;;;8.73;1.73;;;9.40;66.60;;;;;;5067930;28;20035;-68
2021/05/05 00:59:10;;;;;;;4.60;2.13;;;9.50;65.40;;;;;;5068093;28;20060;-68
2021/05/05 01:01:35;;;;;;;;;;;9.50;66.00;;;;;;5067725;28;20110;-67
2021/05/05 01:04:01;;;;;;;6.70;2.28;;;9.50;65.60;;;;;;5067995;28;19982;-68
2021/05/05 01:06:27;;;;;;;3.05;1.48;;;9.50;65.30;;;;;;5068065;28;20790;-68
2021/05/05 01:08:53;;;;;;;4.93;1.50;;;9.50;65.30;;;;;;5068477;28;20028;-68
2021/05/05 01:11:19;;;;;;;4.20;1.17;;;9.50;65.40;;;;;;5067985;28;20032;-68
2021/05/05 01:13:44;;;;;;;;;;;9.50;65.60;;;;;;5068827;28;20397;-67
2021/05/05 01:16:15;;;;;;;3.30;1.40;;;9.50;65.80;;;;;;5067850;28;19908;-68
2021/05/05 01:18:42;;;;;;;6.03;1.55;;;9.40;66.60;;;;;;5068518;28;20102;-68
2021/05/05 01:21:08;;;;;;;4.80;1.42;;;9.30;67.10;;;;;;5067797;28;20024;-67
2021/05/05 01:23:33;;;;;;;;;;;9.20;67.50;;;;;;5068909;28;20071;-69
2021/05/05 01:25:59;;;;;;;5.28;1.55;;;9.20;68.10;;;;;;5067538;28;20451;-68
2021/05/05 01:28:24;;;;;;;;;;;9.10;68.10;;;;;;5068007;28;20020;-67
2021/05/05 01:30:50;;;;;;;5.82;1.70;;;9.10;68.00;;;;;;5067777;28;19912;-68
2021/05/05 01:33:16;;;;;;;4.47;2.22;;;9.10;68.50;;;;;;5067828;28;20052;-68
2021/05/05 01:35:45;;;;;;;4.13;1.73;;;9.10;68.80;;;;;;5067869;28;20048;-68
2021/05/05 01:38:10;;;;;;;10.32;2.20;;;9.00;69.40;;;;;;5067354;28;20054;-69
2021/05/05 01:40:37;;;;;;;6.53;1.50;;;8.90;69.80;;;;;;5067521;28;20021;-68
2021/05/05 01:43:05;;;;;;;9.43;1.52;;;9.00;69.30;;;;;;5100495;28;20019;-68
2021/05/05 01:45:31;;;;;;;5.03;1.67;;;9.00;69.00;;;;;;5108014;28;20498;-68
2021/05/05 01:47:59;;;;;;;3.38;1.60;;;9.00;68.90;;;;;;5108263;28;20104;-68
2021/05/05 01:50:26;;;;;;;3.40;1.45;;;8.90;69.10;;;;;;5108119;28;20028;-68
2021/05/05 01:52:52;;;;;;;5.05;1.83;;;9.00;69.20;;;;;;5108148;28;20059;-67
2021/05/05 01:55:18;;;;;;;5.00;1.60;;;9.00;69.00;;;;;;5106586;28;20035;-67
2021/05/05 01:57:45;;;;;;;;;;;9.00;69.40;;;;;;5108072;28;20031;-69
2021/05/05 02:00:14;;;;;;;2.83;1.70;;;9.00;69.70;;;;;;5108107;28;19908;-68
2021/05/05 02:02:40;;;;;;;7.22;1.88;;;9.00;69.80;;;;;;5107789;28;20038;-68
2021/05/05 02:05:07;;;;;;;4.15;1.85;;;8.90;69.90;;;;;;5108001;28;20027;-67
2021/05/05 02:07:33;;;;;;;5.55;1.40;;;8.80;70.30;;;;;;5091935;28;20069;-69
2021/05/05 02:09:59;;;;;;;5.40;2.10;;;8.80;70.70;;;;;;5081007;28;20036;-68
2021/05/05 02:12:24;;;;;;;;;;;8.80;71.00;;;;;;5077755;28;20504;-68
2021/05/05 02:14:50;;;;;;;3.50;1.90;;;8.70;71.20;;;;;;5086489;28;19951;-67
2021/05/05 02:17:16;;;;;;;;;;;8.70;71.80;;;;;;5085107;28;20036;-67
2021/05/05 02:19:42;;;;;;;4.18;1.60;;;8.70;71.80;;;;;;5074022;28;19996;-67
2021/05/05 02:22:08;;;;;;;;;;;8.70;72.00;;;;;;5076460;28;20023;-67
2021/05/05 02:24:34;;;;;;;4.18;2.17;;;8.80;71.50;;;;;;5073610;28;20408;-67
2021/05/05 02:26:59;;;;;;;8.20;2.50;;;8.80;71.30;;;;;;5074371;28;20032;-67
2021/05/05 02:29:25;;;;;;;;;;;8.90;71.10;;;;;;5075891;28;20119;-68
2021/05/05 02:31:51;;;;;;;5.45;2.17;;;8.80;71.00;;;;;;5073393;28;19940;-68
2021/05/05 02:34:17;;;;;;;12.13;2.22;;;8.90;71.30;;;;;;5078970;28;20060;-68
2021/05/05 02:36:43;;;;;;;;;;;8.90;70.90;;;;;;5074148;28;20033;-68
2021/05/05 02:39:10;;;;;;;6.97;1.83;;;8.90;71.00;;;;;;5074007;28;20364;-68
2021/05/05 02:41:38;;;;;;;5.53;2.25;;;8.80;71.10;;;;;;5075095;28;20035;-68
2021/05/05 02:44:04;;;;;;;5.85;1.90;;;8.70;71.00;;;;;;5071645;28;20012;-68
2021/05/05 02:46:30;;;;;;;7.45;1.63;;;8.70;70.60;;;;;;5074452;28;20028;-67
2021/05/05 02:48:56;;;;;;;;;;;8.70;70.20;;;;;;5073422;28;20028;-68
2021/05/05 02:51:21;;;;;;;7.05;1.58;;;8.80;70.30;;;;;;5075273;28;20299;-67
2021/05/05 02:53:47;;;;;;;;;;;8.80;70.20;;;;;;5073828;28;20032;-67
2021/05/05 02:56:12;;;;;;;10.30;1.85;;;8.90;69.70;;;;;;5073597;28;20280;-68
2021/05/05 02:58:38;;;;;;;6.75;2.03;;;8.90;69.80;;;;;;5074677;28;20040;-67
2021/05/05 03:01:04;;;;;;;6.10;2.30;;;8.90;69.70;;;;;;5073248;28;20552;-67
2021/05/05 03:03:29;;;;;;;3.90;1.80;;;8.90;69.80;;;;;;5079886;28;20052;-67
2021/05/05 03:05:55;;;;;;;11.20;2.38;;;9.00;69.70;;;;;;5085861;28;20036;-67
2021/05/05 03:08:21;;;;;;;5.18;1.77;;;8.90;70.30;;;;;;5083567;28;20496;-68
2021/05/05 03:10:47;;;;;;;;;;;8.90;70.60;;;;;;5086249;28;20035;-67
2021/05/05 03:13:12;;;;;;;5.43;1.85;;;8.80;70.80;;;;;;5085564;28;19991;-67
2021/05/05 03:15:38;;;;;;;11.32;2.22;;;8.70;70.30;;;;;;5085327;28;20119;-67
2021/05/05 03:18:04;;;;;;;;;;;8.70;70.10;;;;;;5085997;28;20047;-67
2021/05/05 03:20:30;;;;;;;5.32;2.10;;;8.70;70.50;;;;;;5084947;28;19908;-67
2021/05/05 03:22:55;;;;;;;;;;;8.70;70.80;;;;;;5085768;28;20062;-67
2021/05/05 03:25:21;;;;;;;5.35;1.40;;;8.70;70.70;;;;;;5085423;28;19908;-68
2021/05/05 03:27:47;;;;;;;11.02;1.73;;;8.70;70.50;;;;;;5085616;28;20060;-67
2021/05/05 03:30:13;;;;;;;7.50;2.03;;;8.70;71.00;;;;;;5089619;28;20494;-67
2021/05/05 03:32:39;;;;;;;7.63;2.58;;;8.80;70.50;;;;;;5089488;28;20104;-67
2021/05/05 03:35:05;;;;;;;;;;;8.90;70.40;;;;;;5090066;28;20518;-68
2021/05/05 03:37:31;;;;;;;4.82;2.13;;;8.90;70.10;;;;;;5089494;28;20367;-67
2021/05/05 03:39:57;;;;;;;7.00;2.40;;;9.00;70.20;;;;;;5088641;28;20133;-67
2021/05/05 03:42:22;;;;;;;;;;;9.10;71.00;;;;;;5089828;28;20052;-67
2021/05/05 03:44:48;;;;;;;4.43;1.80;;;9.10;71.70;;;;;;5089032;28;19965;-67
2021/05/05 03:47:14;;;;;;;9.07;3.58;;;9.10;71.40;;;;;;5089449;28;20484;-68
2021/05/05 03:49:39;;;;;;;10.80;4.07;;;9.10;71.90;;;;;;5089610;28;20452;-67
2021/05/05 03:52:05;;;;;;;13.57;2.63;;;9.20;72.30;;;;;;5088900;28;20027;-67
2021/05/05 03:54:31;;;;;;;;;;;9.20;72.10;;;;;;5089218;28;20032;-67
2021/05/05 03:56:56;;;;;;;6.13;2.80;;;9.30;71.70;;;;;;5088980;28;20136;-66
2021/05/05 03:59:22;;;;;;;;;;;9.30;71.40;;;;;;5089448;28;20107;-68
2021/05/05 04:01:47;;;;;;;8.98;2.88;;;9.40;71.00;;;;;;5089076;28;19904;-68
2021/05/05 04:04:13;;;;;;;;;;;9.60;71.20;;;;;;5089087;28;20054;-68
2021/05/05 04:06:38;;;;;;;8.23;3.08;;;9.80;71.00;;;;;;5088819;28;19915;-69
2021/05/05 04:09:04;;;;;;;;;;;10.10;69.80;;;;;;5088836;28;20035;-68
2021/05/05 04:11:30;;;;;;;7.10;3.10;;;10.50;68.20;;;;;;5088972;28;19908;-68
2021/05/05 04:13:56;;;;;;;9.07;2.47;;;10.60;67.70;;;;;;5088861;28;20051;-68
2021/05/05 04:16:21;;;;;;;;;;;10.70;67.40;;;;;;5088648;28;20075;-67
2021/05/05 04:21:23;;;;;;;5.45;2.92;;;10.70;67.80;;;;;;4929086;23;20540;-68
2021/05/05 04:23:49;;;;;;;7.40;3.17;;;10.70;68.00;;;;;;5065496;28;20419;-68
2021/05/05 04:26:15;;;;;;;;;;;10.80;68.20;;;;;;5066851;28;20040;-68
2021/05/05 04:28:41;;;;;;;8.02;2.95;;;10.80;68.80;;;;;;5068259;28;20279;-72
2021/05/05 04:31:07;;;;;;;;;;;10.80;68.90;;;;;;5068525;28;20067;-68
2021/05/05 04:40:17;;;;;;;7.05;1.83;;;11.00;67.50;;;;;;5067919;28;20035;-68
2021/05/05 04:42:43;;;;;;;;;;;11.10;67.70;;;;;;5066637;28;20028;-67
2021/05/05 04:45:10;;;;;;;10.40;2.15;;;11.20;68.30;;;;;;5068072;28;19908;-68
2021/05/05 04:47:36;;;;;;;7.05;1.73;;;11.50;68.40;;;;;;5067536;28;20029;-68
2021/05/05 04:50:04;;;;;;;8.20;2.03;;;11.80;66.70;;;;;;5067724;28;20040;-68
2021/05/05 04:56:39;;;;;;;13.00;1.23;;;12.40;64.70;;;;;;5067955;28;20058;-69
2021/05/05 04:59:04;;;;;;;9.25;1.20;;;12.80;63.60;;;;;;5068396;28;20036;-69
2021/05/05 05:01:30;;;;;;;;;;;13.40;61.90;;;;;;5068318;28;20029;-68
2021/05/05 05:03:56;;;;;;;6.60;1.38;;;13.80;60.90;;;;;;5067358;28;19912;-69
2021/05/05 05:06:21;;;;;;;;;;;14.20;60.40;;;;;;5068449;28;20028;-68
2021/05/05 05:08:47;;;;;;;9.52;1.52;;;14.60;58.70;;;;;;5067410;28;19914;-68
2021/05/05 05:11:13;;;;;;;;;;;14.70;58.30;;;;;;5065983;28;20567;-69
2021/05/05 05:17:00;;;;;;;7.18;1.27;;;15.10;53.90;;;;;;5068249;28;20040;-68
2021/05/05 05:19:26;;;;;;;;;;;15.30;53.20;;;;;;5068268;28;20036;-68
2021/05/05 05:21:51;;;;;;;6.30;1.80;;;15.30;50.80;;;;;;5066851;28;20308;-69
2021/05/05 05:24:17;;;;;;;9.30;2.70;;;15.30;51.40;;;;;;5066813;28;20024;-68
2021/05/05 05:26:43;;;;;;;;;;;15.30;52.30;;;;;;5067467;28;20047;-67
2021/05/05 05:29:09;;;;;;;5.38;1.60;;;15.30;50.90;;;;;;5067441;28;20397;-68
2021/05/05 05:31:34;;;;;;;;;;;15.30;51.80;;;;;;5066051;28;20492;-69
2021/05/05 05:37:22;;;;;;;7.30;1.33;;;15.80;51.00;;;;;;5067074;28;20043;-69
2021/05/05 05:39:47;;;;;;;9.13;1.58;;;16.30;49.70;;;;;;5067136;28;20029;-69
2021/05/05 05:42:13;;;;;;;;;;;16.70;48.60;;;;;;5065811;28;20119;-69
2021/05/05 05:44:38;;;;;;;4.13;1.33;;;17.30;46.00;;;;;;5067195;28;19908;-70
2021/05/05 05:47:04;;;;;;;6.47;1.73;;;17.90;44.80;;;;;;5067010;28;20024;-69
2021/05/05 05:56:19;;;;;;;3.60;0.88;;;18.50;41.50;;;;;;5067098;28;20031;-68
2021/05/05 05:58:45;;;;;;;2.88;1.15;;;18.10;42.00;;;;;;5066959;28;20102;-69
2021/05/05 06:01:11;;;;;;;6.68;1.45;;;17.90;42.80;;;;;;5065892;28;20439;-67
2021/05/05 06:03:37;;;;;;;6.93;1.45;;;18.10;42.70;;;;;;5064477;28;20028;-68
2021/05/05 06:06:03;;;;;;;6.55;1.98;;;18.40;41.80;;;;;;5065806;28;20085;-68
2021/05/05 06:11:51;;;;;;;6.85;1.40;;;18.40;41.10;;;;;;5066639;28;20035;-69
2021/05/05 06:14:17;;;;;;;3.60;1.20;;;19.00;40.20;;;;;;5065315;28;20032;-69
2021/05/05 06:16:43;;;;;;;6.63;2.05;;;19.50;39.30;;;;;;5065187;28;20029;-68
2021/05/05 06:19:09;;;;;;;4.93;1.65;;;19.80;37.80;;;;;;5063946;28;20501;-69
2021/05/05 06:21:34;;;;;;;3.42;1.55;;;19.70;38.10;;;;;;5064637;28;20131;-68
2021/05/05 06:24:00;;;;;;;8.07;1.83;;;20.00;38.00;;;;;;5066087;28;20467;-69
2021/05/05 06:26:26;;;;;;;11.85;1.92;;;20.90;36.90;;;;;;5063496;28;20048;-69
2021/05/05 06:28:51;;;;;;;18.65;2.35;;;22.00;34.40;;;;;;5064998;28;20643;-69
2021/05/05 06:31:17;;;;;;;8.85;1.77;;;22.40;33.10;;;;;;5065943;28;20078;-69
2021/05/05 06:37:05;;;;;;;7.63;2.08;;;23.80;31.50;;;;;;5063911;28;20060;-68
2021/05/05 06:39:31;;;;;;;4.70;1.70;;;24.80;30.50;;;;;;5059560;28;20064;-67
2021/05/05 06:41:57;;;;;;;4.00;1.60;;;25.40;29.80;;;;;;5064043;28;20041;-67
2021/05/05 06:44:23;;;;;;;8.30;2.05;;;25.80;28.20;;;;;;5063506;28;20041;-67
2021/05/05 06:46:51;;;;;;;12.32;2.13;;;26.10;28.10;;;;;;5062877;28;20127;-67
2021/05/05 06:49:17;;;;;;;7.50;1.67;;;26.20;27.90;;;;;;5063770;28;20459;-67
2021/05/05 06:51:42;;;;;;;20.38;2.30;;;26.10;27.50;;;;;;5063837;28;20533;-67
2021/05/05 06:57:30;;;;;;;40.90;3.13;;;25.40;28.60;;;;;;5063349;28;20098;-67
2021/05/05 06:59:56;;;;;;;7.75;2.05;;;25.30;29.20;;;;;;5062814;28;20044;-67
2021/05/05 07:02:22;;;;;;;8.40;2.40;;;25.60;29.00;;;;;;5063176;28;20039;-67
2021/05/05 07:04:48;;;;;;;12.20;1.88;;;25.90;28.00;;;;;;5064136;28;20028;-65
2021/05/05 07:07:14;;;;;;;8.57;1.98;;;25.90;28.40;;;;;;5062837;28;20547;-67
2021/05/05 07:09:40;;;;;;;5.60;2.20;;;25.80;28.80;;;;;;5063976;28;20028;-67
2021/05/05 07:16:17;;;;;;;9.73;2.22;;;25.90;28.10;;;;;;5066197;28;20032;-69
2021/05/05 07:18:43;;;;;;;4.15;1.70;;;26.20;28.10;;;;;;5065627;28;20036;-68
2021/05/05 07:21:08;;;;;;;16.58;1.90;;;26.10;28.70;;;;;;5065299;28;20577;-68
2021/05/05 07:23:34;;;;;;;7.00;1.88;;;26.10;28.40;;;;;;5064419;28;20037;-68
2021/05/05 07:26:00;;;;;;;5.60;2.05;;;25.60;28.70;;;;;;5065541;28;20020;-68
2021/05/05 07:28:25;;;;;;;6.22;1.85;;;25.20;29.00;;;;;;5062960;28;20078;-68
2021/05/05 07:30:51;;;;;;;8.65;2.00;;;24.90;29.90;;;;;;5064456;28;20086;-68
2021/05/05 07:36:43;;;;;;;13.73;2.08;;;25.60;29.10;;;;;;5065597;28;20424;-68
2021/05/05 07:45:11;;;;;;;7.90;2.38;;;25.50;30.00;;;;;;5065046;28;20078;-69
2021/05/05 07:47:53;;;;;;;3.38;1.90;;;26.20;30.10;;;;;;5065060;28;20488;-68
2021/05/05 07:50:19;;;;;;;4.25;1.75;;;26.80;29.60;;;;;;5064217;28;20291;-68
2021/05/05 07:56:19;;;;;;;7.35;2.25;;;27.00;29.70;;;;;;5066108;28;20154;-68
2021/05/05 07:58:45;;;;;;;12.05;2.42;;;27.60;28.80;;;;;;5063767;28;20041;-68
2021/05/05 08:01:16;;;;;;;8.00;1.77;;;27.80;28.70;;;;;;5065262;28;20503;-68
2021/05/05 08:03:42;;;;;;;7.78;2.20;;;28.00;28.40;;;;;;5063841;28;20064;-68
2021/05/05 08:06:08;;;;;;;4.25;1.95;;;27.70;28.00;;;;;;5064779;28;20040;-67
2021/05/05 08:08:34;;;;;;;4.95;2.10;;;27.40;29.00;;;;;;5065039;28;20500;-68
2021/05/05 08:11:00;;;;;;;6.88;2.08;;;27.50;29.10;;;;;;5065579;28;20047;-68
2021/05/05 08:16:48;;;;;;;7.15;2.08;;;27.90;28.80;;;;;;5069132;28;20051;-67
2021/05/05 08:19:15;;;;;;;5.07;1.90;;;27.90;28.80;;;;;;5066659;28;20574;-68
2021/05/05 08:21:43;;;;;;;8.88;2.95;;;27.80;28.30;;;;;;5068104;28;20036;-67
2021/05/05 08:24:10;;;;;;;4.55;2.30;;;27.30;28.90;;;;;;5067112;28;20024;-68
2021/05/05 08:26:36;;;;;;;4.05;1.90;;;27.30;29.20;;;;;;5068452;28;20028;-68
2021/05/05 08:29:02;;;;;;;12.32;2.35;;;27.10;29.40;;;;;;5068958;28;20064;-68
2021/05/05 08:31:27;;;;;;;5.57;1.73;;;27.20;29.00;;;;;;5068964;28;20051;-68
2021/05/05 08:40:37;;;;;;;7.57;2.25;;;26.80;30.60;;;;;;5067439;28;20519;-67
2021/05/05 08:43:03;;;;;;;9.30;2.38;;;26.40;30.20;;;;;;5067163;28;20052;-66
2021/05/05 08:45:30;;;;;;;4.45;1.90;;;26.20;30.20;;;;;;5065860;28;20365;-66
2021/05/05 08:47:58;;;;;;;7.80;2.00;;;26.10;31.30;;;;;;5066560;28;20036;-66
2021/05/05 08:50:28;;;;;;;6.22;1.65;;;26.40;31.50;;;;;;5066448;28;20492;-64
2021/05/05 08:56:15;;;;;;;9.27;2.28;;;27.20;30.20;;;;;;5067624;28;20078;-66
2021/05/05 08:58:41;;;;;;;5.22;1.50;;;27.60;30.10;;;;;;5065710;28;20036;-65
2021/05/05 09:01:06;;;;;;;9.95;1.67;;;27.70;29.30;;;;;;5067333;28;20071;-66
2021/05/05 09:03:40;;;;;;;6.80;1.85;;;27.90;28.90;;;;;;5067324;28;20460;-66
2021/05/05 09:06:07;;;;;;;15.43;2.15;;;28.20;28.40;;;;;;5065592;28;20390;-66
2021/05/05 09:16:04;;;;;;;37.13;26.13;;;28.10;29.00;;;;;;5067631;28;20038;-66
2021/05/05 09:18:48;;;;;;;12.85;2.58;;;28.30;29.50;;;;;;5067024;28;20041;-66
2021/05/05 09:21:14;;;;;;;8.23;1.15;;;28.30;29.10;;;;;;5066330;28;20139;-66
2021/05/05 09:23:40;;;;;;;13.35;1.95;;;28.00;28.80;;;;;;5067119;28;20170;-66
2021/05/05 09:32:54;;;;;;;9.60;1.48;;;27.70;30.30;;;;;;5065565;28;20593;-65
2021/05/05 09:35:30;;;;;;;8.50;2.33;;;27.70;28.70;;;;;;5063661;28;20052;-65
2021/05/05 09:37:56;;;;;;;;;;;27.60;29.30;;;;;;5059927;28;20386;-67
2021/05/05 09:40:23;;;;;;;5.18;1.48;;;28.00;29.20;;;;;;5067416;28;19923;-65
2021/05/05 09:46:51;;;;;;;5.88;1.80;;;27.80;28.80;;;;;;5067434;28;20039;-67
2021/05/05 09:49:37;;;;;;;7.50;1.80;;;28.10;29.30;;;;;;5066263;28;20028;-66
2021/05/05 09:52:06;;;;;;;7.68;2.13;;;28.20;28.30;;;;;;5065450;28;20411;-66
2021/05/05 09:54:38;;;;;;;7.72;1.80;;;28.20;28.30;;;;;;5066889;28;20079;-66
2021/05/05 09:57:22;;;;;;;5.15;1.73;;;28.30;28.40;;;;;;5066865;28;20043;-66
2021/05/05 09:59:54;;;;;;;3.95;1.60;;;28.50;28.30;;;;;;5066669;28;20510;-66
2021/05/05 10:02:20;;;;;;;5.57;1.65;;;28.60;28.10;;;;;;5066773;28;20020;-66
2021/05/05 10:05:15;;;;;;;9.10;1.50;;;28.60;28.50;;;;;;5066609;28;20025;-66
2021/05/05 10:08:10;;;;;;;7.25;1.42;;;27.90;29.30;;;;;;5057810;28;20091;-68
2021/05/05 10:10:38;;;;;;;2.33;1.38;;;27.30;29.40;;;;;;5057805;28;20052;-67
2021/05/05 10:13:06;;;;;;;7.22;2.03;;;26.80;30.50;;;;;;5066215;28;20496;-67
2021/05/05 10:15:38;;;;;;;3.92;1.70;;;26.30;31.10;;;;;;5066678;28;20067;-66
2021/05/05 10:18:08;;;;;;;10.02;1.60;;;25.70;31.50;;;;;;5066274;28;20040;-67
2021/05/05 10:20:34;;;;;;;15.00;2.13;;;25.40;32.70;;;;;;5065586;28;20055;-67
2021/05/05 10:26:23;;;;;;;5.28;1.85;;;25.00;34.30;;;;;;5066591;28;20035;-67
2021/05/05 10:28:49;;;;;;;8.68;2.75;;;24.90;34.10;;;;;;5066460;28;20491;-67
2021/05/05 10:31:22;;;;;;;9.77;1.70;;;24.70;33.50;;;;;;5064690;28;20033;-66
2021/05/05 10:33:50;;;;;;;8.07;2.05;;;24.60;35.10;;;;;;5064913;28;20044;-66
2021/05/05 10:36:36;;;;;;;19.63;2.08;;;24.60;35.00;;;;;;5065333;28;20020;-66
2021/05/05 10:42:51;;;;;;;8.52;1.98;;;24.20;35.00;;;;;;5066772;28;20124;-66
2021/05/05 10:45:46;;;;;;;5.47;1.52;;;23.60;35.90;;;;;;5066354;28;20028;-67
2021/05/05 10:48:15;;;;;;;7.95;1.92;;;23.50;37.70;;;;;;5055550;28;20036;-67
2021/05/05 10:50:55;;;;;;;5.10;1.30;;;23.60;37.40;;;;;;5066105;28;20392;-66
2021/05/05 10:57:26;;;;;;;4.97;1.50;;;23.90;37.30;;;;;;5066659;28;20120;-66
2021/05/05 10:59:57;;;;;;;4.78;1.10;;;24.20;36.60;;;;;;5066064;28;20028;-66
2021/05/05 11:02:48;;;;;;;5.10;1.20;;;24.20;35.40;;;;;;5066032;28;20028;-67
2021/05/05 11:05:19;;;;;;;8.75;1.70;;;24.10;34.80;;;;;;5065799;28;20436;-67
2021/05/05 11:07:56;;;;;;;10.43;1.35;;;24.10;35.10;;;;;;5065820;28;20032;-66
2021/05/05 11:10:30;;;;;;;;;;;24.10;35.30;;;;;;5065087;28;20086;-67
2021/05/05 11:16:18;;;;;;;7.05;1.40;;;23.90;34.90;;;;;;5066507;28;20044;-66
2021/05/05 11:18:45;;;;;;;10.80;1.67;;;23.70;35.50;;;;;;5063418;28;20032;-66
2021/05/05 11:21:26;;;;;;;4.68;1.50;;;23.70;35.40;;;;;;5064332;28;20087;-66
2021/05/05 11:23:52;;;;;;;14.30;1.55;;;23.70;35.90;;;;;;5065437;28;20033;-66
2021/05/05 11:26:25;;;;;;;12.85;1.33;;;23.70;36.10;;;;;;5065111;28;20424;-67
2021/05/05 11:28:57;;;;;;;7.00;1.52;;;23.80;35.30;;;;;;5065891;28;20078;-67
2021/05/05 11:38:10;;;;;;;8.10;1.85;;;23.80;35.60;;;;;;5066206;28;20102;-67
2021/05/05 11:40:36;;;;;;;8.95;1.88;;;23.60;35.40;;;;;;5065335;28;20386;-67
2021/05/05 11:43:19;;;;;;;5.75;1.60;;;23.70;36.40;;;;;;5065402;28;20514;-67
2021/05/05 11:46:03;;;;;;;11.57;1.48;;;23.90;36.50;;;;;;5065242;28;20086;-67
2021/05/05 11:48:35;;;;;;;7.80;1.40;;;24.20;36.10;;;;;;5063501;28;20541;-67
2021/05/05 11:51:02;;;;;;;6.20;2.25;;;24.20;35.00;;;;;;5069753;28;20130;-67
2021/05/05 11:57:02;;;;;;;10.40;1.92;;;24.20;35.80;;;;;;5070504;28;20081;-67
2021/05/05 11:59:27;;;;;;;7.28;1.15;;;24.10;35.70;;;;;;5069547;28;20093;-65
2021/05/05 12:02:02;;;;;;;15.00;2.72;;;24.10;35.70;;;;;;5069221;28;20028;-67
2021/05/05 12:04:35;;;;;;;7.45;1.10;;;24.10;35.30;;;;;;5068489;28;20112;-66
2021/05/05 12:07:01;;;;;;;13.73;1.70;;;24.20;35.60;;;;;;5069426;28;20025;-67
2021/05/05 12:09:32;;;;;;;3.55;1.48;;;24.40;35.20;;;;;;5068990;28;20484;-67
2021/05/05 12:16:01;;;;;;;5.75;1.85;;;24.30;36.20;;;;;;5069743;28;20036;-66
2021/05/05 12:18:37;;;;;;;7.37;1.33;;;24.30;35.90;;;;;;5068593;28;20040;-67
2021/05/05 12:21:11;;;;;;;15.05;1.83;;;24.10;36.20;;;;;;5068925;28;20270;-67
2021/05/05 12:23:41;;;;;;;4.25;1.90;;;23.90;36.20;;;;;;5069357;28;20032;-67
2021/05/05 12:26:21;;;;;;;10.77;1.75;;;23.90;36.50;;;;;;5069169;28;20029;-67
2021/05/05 12:28:51;;;;;;;11.25;1.40;;;23.80;36.50;;;;;;5069187;28;20032;-66
2021/05/05 12:37:42;;;;;;;6.22;1.30;;;23.90;35.40;;;;;;5069677;28;20102;-68
2021/05/05 12:40:08;;;;;;;6.32;1.45;;;24.00;36.10;;;;;;5068414;28;20025;-67
2021/05/05 12:42:35;;;;;;;7.05;1.33;;;24.30;35.80;;;;;;5068755;28;20192;-66
2021/05/05 12:45:10;;;;;;;5.85;1.17;;;24.40;34.80;;;;;;5068843;28;20021;-67
2021/05/05 12:47:36;;;;;;;6.60;1.10;;;24.60;35.00;;;;;;5067060;28;20024;-67
2021/05/05 12:50:05;;;;;;;8.68;1.35;;;24.60;34.70;;;;;;5067392;28;20020;-67
2021/05/05 12:55:56;;;;;;;7.97;1.23;;;24.40;34.80;;;;;;5069006;28;20082;-67
2021/05/05 12:58:22;;;;;;;14.88;1.20;;;24.30;35.80;;;;;;5068192;28;20506;-67
2021/05/05 13:00:48;;;;;;;3.17;1.00;;;24.30;34.10;;;;;;5067303;28;20514;-67
2021/05/05 13:03:20;;;;;;;8.15;1.05;;;24.30;33.70;;;;;;5068086;28;20480;-67
2021/05/05 13:06:07;;;;;;;6.57;1.13;;;24.10;34.00;;;;;;5068376;28;20382;-66
2021/05/05 13:08:39;;;;;;;8.68;1.02;;;24.00;34.90;;;;;;5068306;28;20142;-67
2021/05/05 13:11:08;;;;;;;7.63;1.08;;;24.00;35.70;;;;;;5066945;28;20116;-67
2021/05/05 13:20:23;;;;;;;14.10;1.60;;;24.20;33.60;;;;;;5022722;28;20044;-67
2021/05/05 13:38:01;;;;;;;3.40;0.90;;;24.40;33.10;;;;;;5068243;28;20044;-67
2021/05/05 13:40:34;;;;;;;9.57;1.50;;;24.30;33.30;;;;;;5067527;28;20029;-68
2021/05/05 13:43:16;;;;;;;3.78;1.00;;;24.00;33.10;;;;;;5067578;28;20017;-68
2021/05/05 13:45:44;;;;;;;3.15;1.00;;;23.90;33.30;;;;;;5067660;28;20012;-68
2021/05/05 13:50:36;;;;;;;10.73;1.25;;;23.80;33.10;;;;;;5067301;28;20025;-67
2021/05/05 13:56:27;;;;;;;8.45;0.93;;;24.00;33.20;;;;;;5068287;28;20130;-68
2021/05/05 13:58:54;;;;;;;7.63;1.23;;;24.00;33.50;;;;;;5067140;28;20036;-67
2021/05/05 14:01:20;;;;;;;5.22;1.10;;;24.00;33.50;;;;;;5065254;28;20483;-68
2021/05/05 14:03:46;;;;;;;9.75;1.50;;;23.90;32.90;;;;;;5067181;28;20218;-68
2021/05/05 14:06:14;;;;;;;6.47;1.20;;;23.80;33.40;;;;;;5066663;28;20032;-68
2021/05/05 14:08:40;;;;;;;11.88;1.25;;;23.50;34.30;;;;;;5067187;28;20019;-68
2021/05/05 14:17:50;;;;;;;3.78;0.93;;;23.00;33.80;;;;;;5066900;28;20058;-68
2021/05/05 14:20:16;;;;;;;15.07;1.25;;;22.90;34.40;;;;;;5066922;28;20025;-67
2021/05/05 14:22:42;;;;;;;4.57;0.93;;;22.80;34.70;;;;;;5065608;28;20135;-68
2021/05/05 14:25:08;;;;;;;6.90;0.90;;;22.80;34.40;;;;;;5067027;28;20614;-68
2021/05/05 14:27:36;;;;;;;5.28;1.58;;;23.10;34.10;;;;;;5066984;28;20024;-68
2021/05/05 14:30:05;;;;;;;5.60;1.85;;;23.30;33.50;;;;;;5066509;28;20561;-68
2021/05/05 14:35:53;;;;;;;10.07;1.25;;;23.60;32.90;;;;;;5067201;28;20408;-69
2021/05/05 14:38:20;;;;;;;8.35;1.27;;;23.70;32.80;;;;;;5066263;28;20029;-68
2021/05/05 14:40:47;;;;;;;3.83;1.00;;;23.60;32.70;;;;;;5066788;28;20491;-67
2021/05/05 14:43:30;;;;;;;14.35;1.52;;;23.50;32.60;;;;;;5066476;28;20033;-68
2021/05/05 14:50:48;;;;;;;7.35;0.88;;;23.10;33.30;;;;;;5066714;28;20074;-67
2021/05/05 14:56:36;;;;;;;5.38;1.00;;;22.70;33.60;;;;;;5066990;28;20102;-68
2021/05/05 14:59:10;;;;;;;4.38;1.33;;;22.50;34.20;;;;;;5064826;28;20037;-67
2021/05/05 15:01:37;;;;;;;10.77;1.10;;;22.40;34.70;;;;;;5065991;28;20070;-68
2021/05/05 15:04:03;;;;;;;9.85;0.95;;;22.20;34.50;;;;;;5065520;28;20135;-68
2021/05/05 15:06:33;;;;;;;6.70;1.00;;;22.10;35.10;;;;;;5065364;28;20111;-68
2021/05/05 15:35:36;;;;;;;4.60;1.00;;;22.30;36.60;;;;;;5066807;28;20043;-67
2021/05/05 15:38:23;;;;;;;5.85;1.17;;;22.30;36.60;;;;;;5066103;28;20042;-68
2021/05/05 15:48:29;;;;;;;;;;;22.50;37.60;;;;;;5066303;28;20036;-68
2021/05/05 15:50:55;;;;;;;5.37;0.80;;;22.20;37.40;;;;;;5065531;28;19906;-68
2021/05/05 15:56:45;;;;;;;5.25;1.23;;;21.80;39.60;;;;;;5066221;28;20028;-67
2021/05/05 15:59:17;;;;;;;9.13;1.25;;;21.50;40.00;;;;;;5064890;28;20035;-67
2021/05/05 16:02:20;;;;;;;14.68;1.30;;;21.40;40.50;;;;;;5064553;28;20136;-67
2021/05/05 16:17:17;;;;;;;4.10;0.82;;;21.10;39.00;;;;;;5065935;28;20051;-68
2021/05/05 16:20:28;;;;;;;8.45;0.93;;;20.80;38.80;;;;;;5054549;28;22500;-68
2021/05/05 16:30:41;;;;;;;6.57;0.80;;;19.70;46.70;;;;;;5045242;28;20809;-66
2021/05/05 16:51:46;;;;;;;2.05;1.00;;;17.20;68.40;;;;;;5049303;28;20111;-68
2021/05/05 16:57:17;;;;;;;1.38;0.70;;;16.70;70.30;;;;;;5048987;28;20646;-67
2021/05/05 17:10:20;;;;;;;3.05;1.10;;;16.00;68.50;;;;;;5048420;28;20097;-67
2021/05/05 17:12:47;;;;;;;5.45;0.50;;;15.90;68.10;;;;;;5048521;28;20025;-66
2021/05/05 17:15:19;;;;;;;4.70;0.40;;;15.80;67.30;;;;;;5048256;28;20020;-67
2021/05/05 17:17:51;;;;;;;2.17;0.50;;;15.70;65.10;;;;;;5048066;28;20040;-67
2021/05/05 17:20:47;;;;;;;4.05;0.30;;;15.50;65.30;;;;;;5048364;28;20053;-67
2021/05/05 17:25:55;;;;;;;1.38;0.30;;;15.10;62.70;;;;;;5048340;28;20044;-67
2021/05/05 18:12:16;;;;;;;2.22;0.70;;;11.50;72.70;;;;;;5047116;28;20032;-67